Napier, New Zealand
Current Conditions -  °F | °C
As of 8:00 AM on Saturday 22 Nov 2014 (Local Time) from NZWN Reporting Station
Broken Clouds Broken Clouds  
Wind Chill: 63°   Ceiling: 1200
Heat Index: 63°   Visibility: 6mi
Dew Point: 57°   Wind: 28mph
Humidity: 82%   Direction: 330°NNW
Pressure: 29.74"   Gusts: 44mph
Location:  39.49°S, 176.92°E
Report Text: NZWN 211900Z AUTO 33024G38KT 310V010 9999 BKN012/// BKN017///17/14 Q1007 TEMPO BKN012
Loading
Personal Weather Stations






























Interactive Weather Map New forecast layout! Learn more

10-Day Weather Forecast

Advertisements
Track Severe Weather on mobile